createdAt,value
2017-11-26T10:34:23.110Z,2116
2017-11-26T10:35:32.884Z,2072
2017-11-26T10:36:42.889Z,1984
2017-11-26T10:37:52.900Z,1964
2017-11-26T10:39:02.641Z,1876
2017-11-26T10:40:12.153Z,1688
2017-11-26T10:41:22.185Z,1408
2017-11-26T10:42:31.941Z,1520
2017-11-26T10:43:41.995Z,1592
2017-11-26T10:44:51.749Z,1304
2017-11-26T10:46:01.868Z,1124
2017-11-26T10:47:11.972Z,1008
2017-11-26T10:48:21.729Z,824
2017-11-26T10:49:31.502Z,836
2017-11-26T10:50:41.517Z,1008
2017-11-26T10:51:51.273Z,1176
2017-11-26T10:53:01.063Z,1244
2017-11-26T10:54:10.581Z,1416
2017-11-26T10:55:20.366Z,1456
2017-11-26T10:56:30.103Z,1324
2017-11-26T10:57:39.578Z,1148
2017-11-26T10:58:49.339Z,1268
2017-11-26T10:59:59.368Z,1604
2017-11-26T11:01:09.108Z,1656
2017-11-26T11:02:18.868Z,1488
2017-11-26T11:03:28.889Z,1496
2017-11-26T11:04:38.629Z,1480
2017-11-26T11:05:48.110Z,1432
2017-11-26T11:06:57.856Z,1684
2017-11-26T11:08:07.333Z,1836
2017-11-26T11:09:17.359Z,1728
2017-11-26T11:10:26.825Z,1668
2017-11-26T11:11:36.293Z,1816
2017-11-26T11:12:46.293Z,1764
2017-11-26T11:13:56.313Z,1728
2017-11-26T11:15:06.318Z,1848
2017-11-26T11:16:15.515Z,1800
2017-11-26T11:17:25.529Z,1928
2017-11-26T11:18:35.284Z,1956
2017-11-26T11:19:45.295Z,1848
2017-11-26T11:20:55.378Z,1820
2017-11-26T11:22:04.845Z,1880
2017-11-26T11:23:14.311Z,1848
2017-11-26T11:24:23.787Z,1972
2017-11-26T11:25:33.244Z,1944
2017-11-26T11:26:43.257Z,1844
2017-11-26T11:27:53.188Z,1748
2017-11-26T11:29:03.034Z,1620
2017-11-26T11:30:13.100Z,1564
2017-11-26T11:31:23.120Z,1368
2017-11-26T11:32:32.858Z,1520
2017-11-26T11:33:42.641Z,1336
2017-11-26T11:34:52.399Z,1164
2017-11-26T11:36:01.877Z,1204
2017-11-26T11:37:11.344Z,1492
2017-11-26T11:38:21.354Z,1500
2017-11-26T11:39:31.382Z,1536
2017-11-26T11:40:41.121Z,1660
2017-11-26T11:41:50.858Z,1772
2017-11-26T11:43:00.863Z,1856
2017-11-26T11:44:10.953Z,2036
2017-11-26T11:45:20.696Z,2252
2017-11-26T11:46:30.731Z,2312
2017-11-26T11:47:40.756Z,2356
2017-11-26T11:48:50.814Z,2384
2017-11-26T11:50:00.284Z,2428
2017-11-26T11:51:10.033Z,2532
2017-11-26T11:52:20.049Z,2924
2017-11-26T11:53:29.804Z,3068
2017-11-26T11:54:39.815Z,2360
2017-11-26T11:55:50.243Z,2348
2017-11-26T11:56:59.727Z,2808
2017-11-26T11:58:09.753Z,2548
2017-11-26T11:59:19.499Z,2152
2017-11-26T12:00:28.980Z,2008
2017-11-26T12:01:38.738Z,1884
2017-11-26T12:02:47.938Z,1728
2017-11-26T12:03:57.942Z,1584
2017-11-26T12:05:07.957Z,1300
2017-11-26T12:06:17.424Z,1152
2017-11-26T12:07:26.896Z,1100
2017-11-26T12:08:36.917Z,1200
2017-11-26T12:09:46.928Z,1412
2017-11-26T12:10:56.144Z,1420
2017-11-26T12:12:05.882Z,1400
2017-11-26T12:13:15.636Z,1372
2017-11-26T12:14:25.651Z,1308
2017-11-26T12:15:35.134Z,1292
2017-11-26T12:16:44.972Z,1132
2017-11-26T12:17:55.090Z,1188
2017-11-26T12:19:04.826Z,1300
2017-11-26T12:20:14.301Z,1168
2017-11-26T12:21:24.047Z,1208
2017-11-26T12:22:33.553Z,1296
2017-11-26T12:23:43.619Z,1284
2017-11-26T12:24:53.117Z,1224
2017-11-26T12:26:03.170Z,1020
2017-11-26T12:27:12.921Z,960
2017-11-26T12:28:22.444Z,972
2017-11-26T12:29:32.463Z,1044
2017-11-26T12:30:42.219Z,1200
2017-11-26T12:31:51.983Z,1240
2017-11-26T12:33:01.998Z,1256
2017-11-26T12:34:12.060Z,1360
2017-11-26T12:35:22.093Z,1528
2017-11-26T12:36:32.208Z,1832
2017-11-26T12:37:41.947Z,1884
2017-11-26T12:38:51.689Z,1824
2017-11-26T12:40:01.720Z,1716
2017-11-26T12:41:11.733Z,1752
2017-11-26T12:42:21.469Z,1656
2017-11-26T12:43:31.204Z,1816
2017-11-26T12:44:40.663Z,1596
2017-11-26T12:45:50.725Z,1580
2017-11-26T12:47:00.735Z,1652
2017-11-26T12:48:10.747Z,1732
2017-11-26T12:49:20.495Z,1640
2017-11-26T12:50:30.502Z,1680
2017-11-26T12:51:39.967Z,1548
2017-11-26T12:52:49.983Z,1348
2017-11-26T12:53:59.720Z,1420
2017-11-26T12:55:09.188Z,1488
2017-11-26T12:56:19.212Z,1368
2017-11-26T12:57:28.952Z,1240
2017-11-26T12:58:39.009Z,1100
2017-11-26T12:59:48.794Z,1076
2017-11-26T13:00:58.872Z,1196
2017-11-26T13:02:08.611Z,1244
2017-11-26T13:03:18.378Z,1304
2017-11-26T13:04:28.415Z,1344
2017-11-26T13:05:38.193Z,1420
2017-11-26T13:06:48.219Z,1476
2017-11-26T13:07:58.018Z,1636
2017-11-26T13:09:07.553Z,1720
2017-11-26T13:10:17.291Z,1672
2017-11-26T13:11:26.601Z,2224
2017-11-26T13:12:36.632Z,1292
2017-11-26T13:13:46.659Z,1196
2017-11-26T13:14:56.669Z,1148
2017-11-26T13:16:06.423Z,1096
2017-11-26T13:17:16.193Z,1048
2017-11-26T13:18:26.195Z,1060
2017-11-26T13:19:35.945Z,980
2017-11-26T13:20:45.968Z,948
2017-11-26T13:21:55.973Z,916
2017-11-26T13:23:05.710Z,964
2017-11-26T13:24:15.757Z,1148
2017-11-26T13:25:25.934Z,1228
2017-11-26T13:26:35.677Z,1260
2017-11-26T13:27:45.830Z,1512
2017-11-26T13:28:55.858Z,1536
2017-11-26T13:30:05.870Z,1436
2017-11-26T13:31:15.073Z,1528
2017-11-26T13:32:24.830Z,1532
2017-11-26T13:33:34.592Z,1524
2017-11-26T13:34:44.614Z,1544
2017-11-26T13:35:54.621Z,1592
2017-11-26T13:37:04.094Z,1688
2017-11-26T13:38:13.839Z,1720
2017-11-26T13:39:23.584Z,1700
2017-11-26T13:40:33.613Z,1660
2017-11-26T13:41:43.354Z,1648
2017-11-26T13:42:53.374Z,1564
2017-11-26T13:44:03.726Z,1452
2017-11-26T13:45:13.773Z,1316
2017-11-26T13:46:23.787Z,1268
2017-11-26T13:47:33.864Z,1272
2017-11-26T13:48:43.662Z,1436
2017-11-26T13:49:53.398Z,1488
2017-11-26T13:51:03.139Z,1556
2017-11-26T13:52:13.199Z,1660
2017-11-26T13:53:22.965Z,1668
2017-11-26T13:54:32.427Z,1732
2017-11-26T13:55:42.188Z,1736
2017-11-26T13:56:51.662Z,1672
2017-11-26T13:58:01.224Z,1700
2017-11-26T13:59:10.703Z,1636
2017-11-26T14:00:20.716Z,1572
2017-11-26T14:01:30.446Z,1552
2017-11-26T14:02:40.188Z,1344
2017-11-26T14:03:50.066Z,1168
2017-11-26T14:05:00.183Z,1148
2017-11-26T14:06:09.647Z,1228
2017-11-26T14:07:19.678Z,1168
2017-11-26T14:08:28.901Z,1144
2017-11-26T14:09:38.959Z,1160
2017-11-26T14:10:48.513Z,1076
2017-11-26T14:11:58.288Z,1100
2017-11-26T14:13:08.415Z,1140
2017-11-26T14:14:18.186Z,1200
2017-11-26T14:15:27.655Z,1188
2017-11-26T14:16:37.730Z,1196
2017-11-26T14:17:47.766Z,1264
2017-11-26T14:18:57.504Z,1336
2017-11-26T14:20:07.265Z,1348
2017-11-26T14:21:17.055Z,1368
2017-11-26T14:22:26.870Z,1380
2017-11-26T14:23:36.892Z,1400
2017-11-26T14:24:46.901Z,1316
2017-11-26T14:25:56.387Z,1268
2017-11-26T14:27:05.866Z,1144
2017-11-26T14:28:15.339Z,1024
2017-11-26T14:29:25.079Z,960
2017-11-26T14:30:34.830Z,892
2017-11-26T14:31:44.568Z,852
2017-11-26T14:32:54.588Z,868
2017-11-26T14:34:04.596Z,792
2017-11-26T14:35:14.628Z,748
2017-11-26T14:36:24.648Z,692
2017-11-26T14:37:34.668Z,644
2017-11-26T14:38:44.420Z,616
2017-11-26T14:39:53.895Z,556
2017-11-26T14:41:03.676Z,496
2017-11-26T14:42:13.139Z,428
2017-11-26T14:43:22.925Z,376
2017-11-26T14:44:32.994Z,336
2017-11-26T14:45:43.061Z,332
2017-11-26T14:46:53.200Z,372
2017-11-26T14:48:03.284Z,452
2017-11-26T14:49:12.502Z,428
2017-11-26T14:50:22.003Z,420
2017-11-26T14:51:31.879Z,460
2017-11-26T14:52:41.682Z,452
2017-11-26T14:53:51.767Z,404
2017-11-26T14:55:01.881Z,352
2017-11-26T14:56:11.673Z,296
2017-11-26T14:57:20.880Z,276
2017-11-26T14:58:30.369Z,284
2017-11-26T14:59:40.173Z,300
2017-11-26T15:00:49.661Z,312
2017-11-26T15:01:59.775Z,304
2017-11-26T15:03:09.512Z,280
2017-11-26T15:04:18.983Z,252
2017-11-26T15:05:29.041Z,236
2017-11-26T15:06:38.822Z,228
2017-11-26T15:07:48.850Z,212
2017-11-26T15:08:58.348Z,204
2017-11-26T15:10:08.505Z,192
2017-11-26T15:11:18.357Z,184
2017-11-26T15:12:27.875Z,188
2017-11-26T15:13:37.696Z,192
2017-11-26T15:14:47.208Z,192
2017-11-26T15:15:56.456Z,180
2017-11-26T15:17:06.477Z,168
2017-11-26T15:18:16.308Z,156
2017-11-26T15:19:26.107Z,140
2017-11-26T15:20:35.634Z,124
2017-11-26T15:21:45.707Z,116
2017-11-26T15:22:55.210Z,104
2017-11-26T15:24:05.239Z,96
2017-11-26T15:25:14.781Z,92
2017-11-26T15:26:24.264Z,88
2017-11-26T15:27:34.041Z,80
2017-11-26T15:28:43.508Z,76
2017-11-26T15:29:53.600Z,72
2017-11-26T15:31:03.373Z,68
2017-11-26T15:32:13.473Z,60
2017-11-26T15:33:22.956Z,56
2017-11-26T15:34:32.453Z,48
2017-11-26T15:35:42.225Z,44
2017-11-26T15:36:51.966Z,40
2017-11-26T15:38:01.757Z,36
2017-11-26T15:39:10.698Z,36
2017-11-26T15:40:20.211Z,32
2017-11-26T15:41:30.246Z,32
2017-11-26T15:42:40.302Z,28
2017-11-26T15:43:49.790Z,24
2017-11-26T15:44:59.800Z,20
2017-11-26T15:46:09.374Z,20
2017-11-26T15:47:18.860Z,12
2017-11-26T15:48:28.595Z,12
2017-11-26T15:49:38.070Z,12
2017-11-26T15:50:48.094Z,12
2017-11-26T15:51:58.414Z,8
2017-11-26T15:53:08.587Z,8
2017-11-26T15:54:19.153Z,8
2017-11-26T15:55:29.039Z,4
2017-11-26T15:56:38.621Z,4
2017-11-26T15:57:48.790Z,8
2017-11-26T15:58:58.949Z,8
2017-11-26T16:00:08.819Z,4
2017-11-26T16:01:18.986Z,4
2017-11-26T16:02:29.191Z,4
2017-11-26T16:03:39.646Z,4
2017-11-26T16:04:50.129Z,4
2017-11-26T16:06:01.075Z,4
2017-11-26T16:07:11.601Z,0
2017-11-26T16:08:22.104Z,0
2017-11-26T16:09:32.295Z,4
2017-11-26T16:10:42.746Z,4
2017-11-26T16:11:52.035Z,4
2017-11-26T16:13:02.307Z,4
2017-11-26T16:14:12.291Z,4
2017-11-26T16:15:22.571Z,4
2017-11-26T16:16:32.765Z,4
2017-11-26T16:17:43.316Z,4
2017-11-26T16:18:53.951Z,4
2017-11-26T16:20:04.424Z,4
2017-11-26T16:21:15.541Z,4
2017-11-26T16:22:26.228Z,4
2017-11-26T16:23:36.423Z,4
2017-11-26T16:24:47.022Z,4
2017-11-26T16:25:57.527Z,4
2017-11-26T16:27:07.681Z,4
2017-11-26T16:28:18.092Z,4
2017-11-26T16:29:27.661Z,4
2017-11-26T16:30:37.080Z,4
2017-11-26T16:31:46.924Z,4
2017-11-26T16:32:56.822Z,4
2017-11-26T16:34:06.594Z,4
2017-11-26T16:35:17.328Z,4
2017-11-26T16:36:27.856Z,4
2017-11-26T16:37:37.734Z,4
2017-11-26T16:38:48.214Z,4
2017-11-26T16:39:58.784Z,4
2017-11-26T16:41:09.336Z,4
2017-11-26T16:42:19.594Z,4
2017-11-26T16:43:29.973Z,4
2017-11-26T16:44:40.234Z,4
2017-11-26T16:45:49.982Z,4
2017-11-26T16:47:00.182Z,4
2017-11-26T16:48:10.014Z,4
2017-11-26T16:49:20.131Z,4
2017-11-26T16:50:30.627Z,4
2017-11-26T16:51:40.386Z,4
2017-11-26T16:52:50.827Z,4
2017-11-26T16:54:00.786Z,4
2017-11-26T16:55:10.414Z,4
2017-11-26T16:56:20.818Z,4
2017-11-26T16:57:30.973Z,4
2017-11-26T16:58:40.713Z,4
2017-11-26T16:59:50.948Z,4
2017-11-26T17:01:01.151Z,4
2017-11-26T17:02:10.604Z,4
2017-11-26T17:03:20.709Z,4
2017-11-26T17:04:31.304Z,4
2017-11-26T17:05:41.681Z,4
2017-11-26T17:06:52.132Z,4
2017-11-26T17:08:02.703Z,4
2017-11-26T17:09:12.102Z,4
2017-11-26T17:10:22.140Z,4
2017-11-26T17:11:31.980Z,4
2017-11-26T17:12:42.268Z,4
2017-11-26T17:13:52.492Z,4
2017-11-26T17:15:02.560Z,4
2017-11-26T17:16:12.740Z,4
2017-11-26T17:17:22.877Z,4
2017-11-26T17:18:33.071Z,4
2017-11-26T17:19:43.129Z,4
2017-11-26T17:20:53.280Z,4
2017-11-26T17:22:03.744Z,4
2017-11-26T17:23:13.537Z,4
2017-11-26T17:24:23.376Z,4
2017-11-26T17:25:33.861Z,4
2017-11-26T17:26:44.337Z,4
2017-11-26T17:27:54.190Z,4
2017-11-26T17:29:04.072Z,4
2017-11-26T17:30:14.633Z,4
2017-11-26T17:31:25.156Z,4
2017-11-26T17:32:35.976Z,4
2017-11-26T17:33:46.177Z,4
2017-11-26T17:34:56.114Z,4
2017-11-26T17:36:06.331Z,4
2017-11-26T17:37:16.807Z,4
2017-11-26T17:38:26.946Z,4
2017-11-26T17:39:36.895Z,4
2017-11-26T17:40:47.382Z,4
2017-11-26T17:41:57.856Z,4
2017-11-26T17:43:07.622Z,4
2017-11-26T17:44:17.445Z,4
2017-11-26T17:45:27.905Z,4
2017-11-26T17:46:38.326Z,4
2017-11-26T17:47:49.182Z,4
2017-11-26T17:48:59.341Z,4
2017-11-26T17:50:09.511Z,4
2017-11-26T17:51:20.215Z,4
2017-11-26T17:52:30.507Z,4
2017-11-26T17:53:40.955Z,4
2017-11-26T17:54:50.768Z,4
2017-11-26T17:56:01.124Z,4
2017-11-26T17:57:11.812Z,4
2017-11-26T17:58:22.260Z,4
2017-11-26T17:59:32.390Z,4
2017-11-26T18:00:42.477Z,4
2017-11-26T18:01:52.288Z,4
2017-11-26T18:03:02.280Z,4
2017-11-26T18:04:12.334Z,4
2017-11-26T18:05:22.334Z,4
2017-11-26T18:06:31.801Z,4
2017-11-26T18:07:41.565Z,4
2017-11-26T18:08:51.589Z,4
2017-11-26T18:10:01.607Z,4
2017-11-26T18:11:11.376Z,4
2017-11-26T18:12:21.442Z,4
2017-11-26T18:13:31.316Z,4
2017-11-26T18:14:41.559Z,4
2017-11-26T18:15:51.646Z,4
2017-11-26T18:17:00.880Z,4
2017-11-26T18:18:10.676Z,4
2017-11-26T18:19:20.647Z,4
2017-11-26T18:20:30.667Z,4
2017-11-26T18:21:40.585Z,4
2017-11-26T18:22:50.373Z,4
2017-11-26T18:24:00.123Z,4
2017-11-26T18:25:09.960Z,4
2017-11-26T18:26:20.033Z,4
2017-11-26T18:27:30.076Z,4
2017-11-26T18:28:40.079Z,4
2017-11-26T18:29:49.585Z,4
2017-11-26T18:30:59.333Z,4
2017-11-26T18:32:09.382Z,4
2017-11-26T18:33:19.161Z,4
2017-11-26T18:34:28.666Z,4
2017-11-26T18:35:38.449Z,0
2017-11-26T18:36:48.573Z,0
2017-11-26T18:37:58.443Z,0
2017-11-26T18:39:08.239Z,0
2017-11-26T18:40:18.266Z,0
2017-11-26T18:41:27.511Z,0
2017-11-26T18:42:37.255Z,0
2017-11-26T18:43:46.785Z,0
2017-11-26T18:44:56.844Z,0
2017-11-26T18:46:06.871Z,0
2017-11-26T18:47:16.917Z,0
2017-11-26T18:48:26.380Z,0
2017-11-26T18:49:36.400Z,0
2017-11-26T18:50:46.413Z,0
2017-11-26T18:51:56.164Z,0
2017-11-26T18:53:05.641Z,0
2017-11-26T18:54:15.702Z,0
2017-11-26T18:55:25.466Z,0
2017-11-26T18:56:35.498Z,0
2017-11-26T18:57:45.132Z,0
2017-11-26T18:58:54.349Z,0
2017-11-26T19:00:03.839Z,0
2017-11-26T19:01:13.864Z,0
2017-11-26T19:02:23.891Z,0
2017-11-26T19:03:33.906Z,0
2017-11-26T19:04:43.938Z,0
2017-11-26T19:05:53.468Z,0
2017-11-26T19:07:02.957Z,0
2017-11-26T19:08:12.957Z,0
2017-11-26T19:09:23.008Z,0
2017-11-26T19:10:32.242Z,0
2017-11-26T19:11:42.267Z,0
2017-11-26T19:12:52.040Z,0
2017-11-26T19:14:01.518Z,0
2017-11-26T19:15:11.282Z,0
2017-11-26T19:16:20.805Z,0
2017-11-26T19:17:30.588Z,0
2017-11-26T19:18:40.619Z,0
2017-11-26T19:19:50.394Z,0
2017-11-26T19:20:59.925Z,0
2017-11-26T19:22:09.481Z,0
2017-11-26T19:23:19.527Z,0
2017-11-26T19:24:29.086Z,0
2017-11-26T19:25:39.151Z,0
2017-11-26T19:26:49.607Z,0
2017-11-26T19:27:59.740Z,0
2017-11-26T19:29:09.543Z,0
2017-11-26T19:30:19.029Z,0
2017-11-26T19:31:28.824Z,0
2017-11-26T19:32:38.565Z,0
2017-11-26T19:33:48.653Z,0
2017-11-26T19:34:58.309Z,0
2017-11-26T19:36:08.160Z,0
2017-11-26T19:37:17.697Z,0
2017-11-26T19:38:27.632Z,0
2017-11-26T19:39:37.534Z,0
2017-11-26T19:40:47.331Z,0
2017-11-26T19:41:56.825Z,0
2017-11-26T19:43:06.547Z,0
2017-11-26T19:44:16.388Z,0
2017-11-26T19:45:26.185Z,0
2017-11-26T19:46:36.309Z,0
2017-11-26T19:47:45.900Z,0
2017-11-26T19:48:55.953Z,0
2017-11-26T19:50:06.064Z,0
2017-11-26T19:51:15.337Z,0
2017-11-26T19:52:25.091Z,0
2017-11-26T19:53:34.895Z,0
2017-11-26T19:54:44.655Z,0
2017-11-26T19:55:53.928Z,0
2017-11-26T19:57:04.004Z,0
2017-11-26T19:58:13.595Z,0
2017-11-26T19:59:23.422Z,0
2017-11-26T20:00:33.185Z,0
2017-11-26T20:01:43.350Z,0
2017-11-26T20:02:53.411Z,0
2017-11-26T20:04:03.623Z,0
2017-11-26T20:05:12.841Z,0
2017-11-26T20:06:22.620Z,0
2017-11-26T20:07:32.720Z,0
2017-11-26T20:08:42.756Z,0
2017-11-26T20:09:52.795Z,0
2017-11-26T20:11:03.200Z,0
2017-11-26T20:12:13.245Z,0
2017-11-26T20:13:23.344Z,0
2017-11-26T20:14:33.160Z,0
2017-11-26T20:15:43.222Z,0
2017-11-26T20:16:53.273Z,0
2017-11-26T20:18:03.109Z,0
2017-11-26T20:19:12.971Z,0
2017-11-26T20:20:22.663Z,0
2017-11-26T20:21:32.421Z,0
2017-11-26T20:22:42.724Z,0
2017-11-26T20:23:52.860Z,0
2017-11-26T20:25:02.875Z,0
2017-11-26T20:26:12.438Z,0
2017-11-26T20:27:22.502Z,0
2017-11-26T20:28:33.060Z,0
2017-11-26T20:29:43.201Z,0
2017-11-26T20:30:53.242Z,0
2017-11-26T20:32:03.108Z,0
2017-11-26T20:33:13.153Z,0
2017-11-26T20:34:22.938Z,0
2017-11-26T20:35:32.519Z,0
2017-11-26T20:36:42.009Z,0
2017-11-26T20:37:51.872Z,0
2017-11-26T20:39:01.629Z,0
2017-11-26T20:40:11.654Z,0
2017-11-26T20:41:21.404Z,0
2017-11-26T20:42:31.221Z,0
2017-11-26T20:43:40.914Z,0
2017-11-26T20:44:50.654Z,0
2017-11-26T20:46:00.675Z,0
2017-11-26T20:47:10.725Z,0
2017-11-26T20:48:20.255Z,0
2017-11-26T20:49:30.017Z,0
2017-11-26T20:50:40.166Z,0
2017-11-26T20:51:50.174Z,0
2017-11-26T20:52:59.799Z,0
2017-11-26T20:54:09.597Z,0
2017-11-26T20:55:19.674Z,0
2017-11-26T20:56:29.542Z,0
2017-11-26T20:57:39.200Z,0
2017-11-26T20:58:49.241Z,0
2017-11-26T20:59:58.764Z,0
2017-11-26T21:01:08.235Z,0
2017-11-26T21:02:18.251Z,0
2017-11-26T21:03:28.081Z,0
2017-11-26T21:04:37.675Z,0
2017-11-26T21:05:47.515Z,0
2017-11-26T21:06:57.252Z,0
2017-11-26T21:08:06.758Z,0
2017-11-26T21:09:16.501Z,0
2017-11-26T21:10:26.249Z,0
2017-11-26T21:11:36.350Z,0
2017-11-26T21:12:46.210Z,0
2017-11-26T21:13:55.432Z,0
2017-11-26T21:15:05.199Z,0
2017-11-26T21:16:14.959Z,0
2017-11-26T21:17:24.732Z,0
2017-11-26T21:18:34.523Z,0
2017-11-26T21:19:44.556Z,0
2017-11-26T21:20:54.341Z,0
2017-11-26T21:22:04.101Z,0
2017-11-26T21:23:13.605Z,0
2017-11-26T21:24:23.346Z,0
2017-11-26T21:25:33.386Z,0
2017-11-26T21:26:43.415Z,0
2017-11-26T21:27:52.887Z,0
2017-11-26T21:29:02.985Z,0
2017-11-26T21:30:12.781Z,0
2017-11-26T21:31:22.595Z,0
2017-11-26T21:32:32.472Z,0
2017-11-26T21:33:42.239Z,0
2017-11-26T21:34:52.291Z,0
2017-11-26T21:36:02.019Z,0
2017-11-26T21:37:11.789Z,0
2017-11-26T21:38:21.553Z,0
2017-11-26T21:39:31.368Z,0
2017-11-26T21:40:41.392Z,0
2017-11-26T21:41:50.881Z,0
2017-11-26T21:43:00.928Z,0
2017-11-26T21:44:10.681Z,0
2017-11-26T21:45:20.140Z,0
2017-11-26T21:46:30.176Z,0
2017-11-26T21:47:40.223Z,0
2017-11-26T21:48:49.729Z,0
2017-11-26T21:49:59.555Z,0
2017-11-26T21:51:09.584Z,0
2017-11-26T21:52:19.459Z,0
2017-11-26T21:53:29.529Z,0
2017-11-26T21:54:39.326Z,0
2017-11-26T21:55:49.353Z,0
2017-11-26T21:56:59.396Z,0
2017-11-26T21:58:09.176Z,0
2017-11-26T21:59:19.024Z,0
2017-11-26T22:00:29.057Z,0
2017-11-26T22:01:39.076Z,0
2017-11-26T22:02:48.270Z,0
2017-11-26T22:03:58.400Z,0
2017-11-26T22:05:08.169Z,0
2017-11-26T22:06:18.215Z,0
2017-11-26T22:07:28.340Z,0
2017-11-26T22:08:37.896Z,0
2017-11-26T22:09:47.764Z,0
2017-11-26T22:10:57.790Z,0
2017-11-26T22:12:07.640Z,0
2017-11-26T22:13:17.437Z,0
2017-11-26T22:14:27.469Z,0
2017-11-26T22:15:36.940Z,0
2017-11-26T22:16:46.141Z,0
2017-11-26T22:17:56.261Z,0
2017-11-26T22:19:06.284Z,0
2017-11-26T22:20:16.148Z,0
2017-11-26T22:21:26.155Z,0
2017-11-26T22:22:35.917Z,0
2017-11-26T22:23:45.658Z,0
2017-11-26T22:24:55.149Z,0
2017-11-26T22:26:05.185Z,0
2017-11-26T22:27:14.675Z,0
2017-11-26T22:28:24.438Z,0
2017-11-26T22:29:34.197Z,0
2017-11-26T22:30:43.948Z,0
2017-11-26T22:31:53.691Z,0
2017-11-26T22:33:03.859Z,0
2017-11-26T22:34:13.602Z,0
2017-11-26T22:35:23.072Z,0
2017-11-26T22:36:32.887Z,0
2017-11-26T22:37:42.644Z,0
2017-11-26T22:38:52.377Z,0
2017-11-26T22:40:01.865Z,0
2017-11-26T22:41:11.969Z,0
2017-11-26T22:42:22.560Z,0
2017-11-26T22:43:31.775Z,0
2017-11-26T22:44:41.880Z,0
2017-11-26T22:45:51.932Z,0
2017-11-26T22:47:01.677Z,0
2017-11-26T22:48:11.246Z,0
2017-11-26T22:49:21.384Z,0
2017-11-26T22:50:31.466Z,0
2017-11-26T22:51:41.509Z,0
2017-11-26T22:52:51.253Z,0
2017-11-26T22:54:01.111Z,0
2017-11-26T22:55:10.960Z,0
2017-11-26T22:56:20.971Z,0
2017-11-26T22:57:31.035Z,0
2017-11-26T22:58:40.530Z,0
2017-11-26T22:59:49.860Z,0
2017-11-26T23:00:59.627Z,0
2017-11-26T23:02:09.147Z,0
2017-11-26T23:03:19.315Z,0
2017-11-26T23:04:28.878Z,0
2017-11-26T23:05:38.367Z,0
2017-11-26T23:06:48.489Z,0
2017-11-26T23:07:58.519Z,0
2017-11-26T23:09:08.651Z,0
2017-11-26T23:10:18.717Z,0
2017-11-26T23:11:28.552Z,0
2017-11-26T23:12:38.345Z,0
2017-11-26T23:13:47.824Z,0
2017-11-26T23:14:57.308Z,0
2017-11-26T23:16:07.348Z,0
2017-11-26T23:17:17.401Z,0
2017-11-26T23:18:26.978Z,0
2017-11-26T23:19:37.672Z,0
2017-11-26T23:20:47.432Z,0
2017-11-26T23:21:57.202Z,0
2017-11-26T23:23:07.278Z,0
2017-11-26T23:24:16.783Z,0
2017-11-26T23:25:26.596Z,0
2017-11-26T23:26:36.151Z,0
2017-11-26T23:27:46.233Z,0
2017-11-26T23:28:56.286Z,0
2017-11-26T23:30:06.293Z,0
2017-11-26T23:31:16.396Z,0
2017-11-26T23:32:26.658Z,0
2017-11-26T23:33:36.556Z,0
2017-11-26T23:34:46.112Z,0
2017-11-26T23:35:56.169Z,0
2017-11-26T23:37:05.943Z,0
2017-11-26T23:38:15.967Z,0
2017-11-26T23:39:26.025Z,0
2017-11-26T23:40:35.785Z,0
2017-11-26T23:41:45.539Z,0
2017-11-26T23:42:55.583Z,0
2017-11-26T23:44:05.329Z,0
2017-11-26T23:45:15.431Z,0
2017-11-26T23:46:25.211Z,0
2017-11-26T23:47:35.012Z,0
2017-11-26T23:48:45.155Z,0
2017-11-26T23:49:54.638Z,0
2017-11-26T23:51:04.768Z,0
2017-11-26T23:52:14.818Z,0
2017-11-26T23:53:24.086Z,0
2017-11-26T23:54:33.839Z,0
2017-11-26T23:55:43.600Z,0
2017-11-26T23:56:53.628Z,0
2017-11-26T23:58:02.816Z,0
2017-11-26T23:59:12.570Z,0
